SEST

San Cristóbal Airport

Airport
ICAO code
SEST
IATA Code
SCY
Summary
ICAO Region
CARSAM
ICAO Territory
Location

San Cristóbal, Galapagos

Serving
San Cristóbal
Elevation
62 ft
Coordinates
0° 54' 37" S , 89° 37' 3" W
Metar
Observation
SEST 262100Z 18014KT 9999 SCT026 22/18 Q1009 RMK A2982
Station
San Cristobal Galapagos
Date/Time
2022-09-26 21:00:00
Wind direction
180°
Wind speed
14 kts
Lowest cloud amount
scattered clouds
Temperature
22°C
Dew point
18°C
Humidity
78%
QNH
1009 hPa
Weather condition
n/a

San Cristóbal Airport is an airport on the island of San Cristóbal, on the Galápagos Islands, Ecuador.

Runways

Designator Length Width Surface Rops
16/34 1894 20 ASP No/No

Airport map

Aerial View

SKYbrary Partners:

Safety knowledge contributed by: